sensor_id;sensor_type;location;lat;lon;timestamp;P1;durP1;ratioP1;P2;durP2;ratioP2
23304;SDS011;11821;51.456;8.844;2023-04-28T00:00:17;6.10;;;4.82;;
23304;SDS011;11821;51.456;8.844;2023-04-28T00:02:43;8.68;;;5.40;;
23304;SDS011;11821;51.456;8.844;2023-04-28T00:05:12;6.90;;;5.13;;
23304;SDS011;11821;51.456;8.844;2023-04-28T00:07:39;5.93;;;5.32;;
23304;SDS011;11821;51.456;8.844;2023-04-28T00:10:06;7.10;;;5.32;;
23304;SDS011;11821;51.456;8.844;2023-04-28T00:12:33;6.28;;;5.35;;
23304;SDS011;11821;51.456;8.844;2023-04-28T00:15:00;6.88;;;5.47;;
23304;SDS011;11821;51.456;8.844;2023-04-28T00:17:26;8.23;;;5.30;;
23304;SDS011;11821;51.456;8.844;2023-04-28T00:19:53;6.38;;;4.88;;
23304;SDS011;11821;51.456;8.844;2023-04-28T00:22:20;8.70;;;6.20;;
23304;SDS011;11821;51.456;8.844;2023-04-28T00:24:47;6.90;;;5.97;;
23304;SDS011;11821;51.456;8.844;2023-04-28T00:27:14;6.15;;;5.55;;
23304;SDS011;11821;51.456;8.844;2023-04-28T00:29:40;9.27;;;6.03;;
23304;SDS011;11821;51.456;8.844;2023-04-28T00:32:07;8.80;;;5.28;;
23304;SDS011;11821;51.456;8.844;2023-04-28T00:34:33;11.00;;;6.53;;
23304;SDS011;11821;51.456;8.844;2023-04-28T00:37:03;6.85;;;5.55;;
23304;SDS011;11821;51.456;8.844;2023-04-28T00:39:29;8.70;;;6.07;;
23304;SDS011;11821;51.456;8.844;2023-04-28T00:41:56;9.68;;;5.97;;
23304;SDS011;11821;51.456;8.844;2023-04-28T00:44:23;8.23;;;5.72;;
23304;SDS011;11821;51.456;8.844;2023-04-28T00:46:49;14.60;;;5.82;;
23304;SDS011;11821;51.456;8.844;2023-04-28T00:49:16;6.55;;;5.85;;
23304;SDS011;11821;51.456;8.844;2023-04-28T00:51:42;7.63;;;5.88;;
23304;SDS011;11821;51.456;8.844;2023-04-28T00:54:12;6.40;;;5.70;;
23304;SDS011;11821;51.456;8.844;2023-04-28T00:56:39;7.15;;;6.45;;
23304;SDS011;11821;51.456;8.844;2023-04-28T00:59:06;8.90;;;6.20;;
23304;SDS011;11821;51.456;8.844;2023-04-28T01:01:33;8.48;;;5.57;;
23304;SDS011;11821;51.456;8.844;2023-04-28T01:04:01;7.45;;;5.43;;
23304;SDS011;11821;51.456;8.844;2023-04-28T01:06:28;8.18;;;5.30;;
23304;SDS011;11821;51.456;8.844;2023-04-28T01:08:58;7.28;;;5.65;;
23304;SDS011;11821;51.456;8.844;2023-04-28T01:11:24;6.00;;;5.00;;
23304;SDS011;11821;51.456;8.844;2023-04-28T01:16:36;8.65;;;5.95;;
23304;SDS011;11821;51.456;8.844;2023-04-28T01:19:06;6.30;;;5.70;;
23304;SDS011;11821;51.456;8.844;2023-04-28T01:21:35;7.00;;;5.35;;
23304;SDS011;11821;51.456;8.844;2023-04-28T01:24:14;9.95;;;5.60;;
23304;SDS011;11821;51.456;8.844;2023-04-28T01:26:40;7.38;;;5.80;;
23304;SDS011;11821;51.456;8.844;2023-04-28T01:29:07;7.05;;;5.47;;
23304;SDS011;11821;51.456;8.844;2023-04-28T01:31:34;7.43;;;5.93;;
23304;SDS011;11821;51.456;8.844;2023-04-28T01:34:01;7.85;;;5.60;;
23304;SDS011;11821;51.456;8.844;2023-04-28T01:36:27;7.03;;;5.95;;
23304;SDS011;11821;51.456;8.844;2023-04-28T01:38:54;6.75;;;6.05;;
23304;SDS011;11821;51.456;8.844;2023-04-28T01:41:21;7.85;;;6.30;;
23304;SDS011;11821;51.456;8.844;2023-04-28T01:43:48;7.18;;;6.25;;
23304;SDS011;11821;51.456;8.844;2023-04-28T01:46:14;8.10;;;6.40;;
23304;SDS011;11821;51.456;8.844;2023-04-28T01:48:41;6.65;;;5.15;;
23304;SDS011;11821;51.456;8.844;2023-04-28T01:51:07;8.63;;;5.85;;
23304;SDS011;11821;51.456;8.844;2023-04-28T01:53:37;9.27;;;6.28;;
23304;SDS011;11821;51.456;8.844;2023-04-28T01:56:04;9.05;;;6.57;;
23304;SDS011;11821;51.456;8.844;2023-04-28T01:58:30;6.93;;;5.78;;
23304;SDS011;11821;51.456;8.844;2023-04-28T02:00:57;6.78;;;5.38;;
23304;SDS011;11821;51.456;8.844;2023-04-28T02:03:24;8.63;;;5.97;;
23304;SDS011;11821;51.456;8.844;2023-04-28T02:05:50;4.88;;;4.20;;
23304;SDS011;11821;51.456;8.844;2023-04-28T02:08:17;5.95;;;5.43;;
23304;SDS011;11821;51.456;8.844;2023-04-28T02:10:44;8.23;;;5.82;;
23304;SDS011;11821;51.456;8.844;2023-04-28T02:13:10;7.55;;;5.60;;
23304;SDS011;11821;51.456;8.844;2023-04-28T02:15:40;7.75;;;5.65;;
23304;SDS011;11821;51.456;8.844;2023-04-28T02:18:07;8.25;;;5.45;;
23304;SDS011;11821;51.456;8.844;2023-04-28T02:20:38;7.70;;;5.30;;
23304;SDS011;11821;51.456;8.844;2023-04-28T02:23:07;5.20;;;4.63;;
23304;SDS011;11821;51.456;8.844;2023-04-28T02:25:33;6.32;;;5.72;;
23304;SDS011;11821;51.456;8.844;2023-04-28T02:28:00;11.93;;;6.25;;
23304;SDS011;11821;51.456;8.844;2023-04-28T02:30:27;9.13;;;6.10;;
23304;SDS011;11821;51.456;8.844;2023-04-28T02:32:55;11.27;;;6.45;;
23304;SDS011;11821;51.456;8.844;2023-04-28T02:35:21;8.95;;;6.45;;
23304;SDS011;11821;51.456;8.844;2023-04-28T02:37:48;7.18;;;6.47;;
23304;SDS011;11821;51.456;8.844;2023-04-28T02:40:15;9.77;;;7.18;;
23304;SDS011;11821;51.456;8.844;2023-04-28T02:42:41;9.23;;;6.28;;
23304;SDS011;11821;51.456;8.844;2023-04-28T02:45:08;9.77;;;6.32;;
23304;SDS011;11821;51.456;8.844;2023-04-28T02:47:34;6.10;;;5.32;;
23304;SDS011;11821;51.456;8.844;2023-04-28T02:50:01;9.45;;;6.85;;
23304;SDS011;11821;51.456;8.844;2023-04-28T02:52:28;3.78;;;3.47;;
23304;SDS011;11821;51.456;8.844;2023-04-28T02:54:55;9.30;;;7.32;;
23304;SDS011;11821;51.456;8.844;2023-04-28T02:57:22;14.00;;;7.05;;
23304;SDS011;11821;51.456;8.844;2023-04-28T02:59:49;12.27;;;7.50;;
23304;SDS011;11821;51.456;8.844;2023-04-28T03:02:16;10.15;;;7.47;;
23304;SDS011;11821;51.456;8.844;2023-04-28T03:04:42;9.43;;;7.63;;
23304;SDS011;11821;51.456;8.844;2023-04-28T03:07:09;12.35;;;7.00;;
23304;SDS011;11821;51.456;8.844;2023-04-28T03:09:36;12.90;;;7.13;;
23304;SDS011;11821;51.456;8.844;2023-04-28T03:12:02;7.82;;;6.45;;
23304;SDS011;11821;51.456;8.844;2023-04-28T03:14:31;11.10;;;8.68;;
23304;SDS011;11821;51.456;8.844;2023-04-28T03:16:58;13.35;;;8.73;;
23304;SDS011;11821;51.456;8.844;2023-04-28T03:19:24;12.98;;;7.78;;
23304;SDS011;11821;51.456;8.844;2023-04-28T03:21:51;9.13;;;8.05;;
23304;SDS011;11821;51.456;8.844;2023-04-28T03:24:18;9.70;;;7.90;;
23304;SDS011;11821;51.456;8.844;2023-04-28T03:26:45;7.55;;;6.75;;
23304;SDS011;11821;51.456;8.844;2023-04-28T03:29:11;9.10;;;8.15;;
23304;SDS011;11821;51.456;8.844;2023-04-28T03:31:38;9.65;;;7.22;;
23304;SDS011;11821;51.456;8.844;2023-04-28T03:34:04;9.23;;;7.80;;
23304;SDS011;11821;51.456;8.844;2023-04-28T03:36:32;8.93;;;7.05;;
23304;SDS011;11821;51.456;8.844;2023-04-28T03:39:07;12.10;;;8.43;;
23304;SDS011;11821;51.456;8.844;2023-04-28T03:41:34;9.07;;;8.13;;
23304;SDS011;11821;51.456;8.844;2023-04-28T03:44:19;9.30;;;8.10;;
23304;SDS011;11821;51.456;8.844;2023-04-28T03:46:48;10.60;;;7.88;;
23304;SDS011;11821;51.456;8.844;2023-04-28T03:49:14;12.18;;;7.63;;
23304;SDS011;11821;51.456;8.844;2023-04-28T03:51:41;13.40;;;8.13;;
23304;SDS011;11821;51.456;8.844;2023-04-28T03:54:08;13.40;;;8.85;;
23304;SDS011;11821;51.456;8.844;2023-04-28T03:56:35;14.73;;;8.75;;
23304;SDS011;11821;51.456;8.844;2023-04-28T03:59:03;11.88;;;8.55;;
23304;SDS011;11821;51.456;8.844;2023-04-28T04:01:29;10.93;;;8.40;;
23304;SDS011;11821;51.456;8.844;2023-04-28T04:03:56;16.02;;;8.70;;
23304;SDS011;11821;51.456;8.844;2023-04-28T04:06:22;10.82;;;8.70;;
23304;SDS011;11821;51.456;8.844;2023-04-28T04:08:49;10.02;;;8.40;;
23304;SDS011;11821;51.456;8.844;2023-04-28T04:11:16;11.25;;;9.30;;
23304;SDS011;11821;51.456;8.844;2023-04-28T04:13:43;16.58;;;8.82;;
23304;SDS011;11821;51.456;8.844;2023-04-28T04:16:13;11.25;;;8.25;;
23304;SDS011;11821;51.456;8.844;2023-04-28T04:18:41;13.98;;;9.75;;
23304;SDS011;11821;51.456;8.844;2023-04-28T04:21:17;10.70;;;8.70;;
23304;SDS011;11821;51.456;8.844;2023-04-28T04:23:44;10.70;;;8.90;;
23304;SDS011;11821;51.456;8.844;2023-04-28T04:26:11;11.23;;;8.43;;
23304;SDS011;11821;51.456;8.844;2023-04-28T04:28:38;12.57;;;9.15;;
23304;SDS011;11821;51.456;8.844;2023-04-28T04:31:07;12.05;;;8.65;;
23304;SDS011;11821;51.456;8.844;2023-04-28T04:33:34;13.90;;;9.73;;
23304;SDS011;11821;51.456;8.844;2023-04-28T04:36:03;14.13;;;9.55;;
23304;SDS011;11821;51.456;8.844;2023-04-28T04:38:30;10.68;;;9.13;;
23304;SDS011;11821;51.456;8.844;2023-04-28T04:41:03;12.13;;;9.40;;
23304;SDS011;11821;51.456;8.844;2023-04-28T04:43:30;12.52;;;7.95;;
23304;SDS011;11821;51.456;8.844;2023-04-28T04:45:56;15.85;;;10.20;;
23304;SDS011;11821;51.456;8.844;2023-04-28T04:48:23;13.45;;;10.43;;
23304;SDS011;11821;51.456;8.844;2023-04-28T04:50:50;14.10;;;10.80;;
23304;SDS011;11821;51.456;8.844;2023-04-28T04:53:17;15.88;;;9.85;;
23304;SDS011;11821;51.456;8.844;2023-04-28T04:55:43;12.23;;;9.75;;
23304;SDS011;11821;51.456;8.844;2023-04-28T04:58:10;12.98;;;10.65;;
23304;SDS011;11821;51.456;8.844;2023-04-28T05:00:55;15.18;;;10.13;;
23304;SDS011;11821;51.456;8.844;2023-04-28T05:03:22;13.73;;;10.68;;
23304;SDS011;11821;51.456;8.844;2023-04-28T05:05:49;12.00;;;10.50;;
23304;SDS011;11821;51.456;8.844;2023-04-28T05:08:24;15.55;;;10.70;;
23304;SDS011;11821;51.456;8.844;2023-04-28T05:10:50;12.68;;;11.05;;
23304;SDS011;11821;51.456;8.844;2023-04-28T05:13:18;12.52;;;9.63;;
23304;SDS011;11821;51.456;8.844;2023-04-28T05:15:46;14.52;;;11.77;;
23304;SDS011;11821;51.456;8.844;2023-04-28T05:18:27;13.35;;;11.20;;
23304;SDS011;11821;51.456;8.844;2023-04-28T05:20:53;19.95;;;11.32;;
23304;SDS011;11821;51.456;8.844;2023-04-28T05:23:20;20.05;;;12.27;;
23304;SDS011;11821;51.456;8.844;2023-04-28T05:25:47;11.32;;;9.82;;
23304;SDS011;11821;51.456;8.844;2023-04-28T05:28:13;16.25;;;11.43;;
23304;SDS011;11821;51.456;8.844;2023-04-28T05:30:42;13.43;;;9.43;;
23304;SDS011;11821;51.456;8.844;2023-04-28T05:33:11;15.93;;;11.82;;
23304;SDS011;11821;51.456;8.844;2023-04-28T05:35:39;15.32;;;12.32;;
23304;SDS011;11821;51.456;8.844;2023-04-28T05:38:06;19.33;;;12.77;;
23304;SDS011;11821;51.456;8.844;2023-04-28T05:40:33;20.67;;;13.60;;
23304;SDS011;11821;51.456;8.844;2023-04-28T05:43:00;22.45;;;13.10;;
23304;SDS011;11821;51.456;8.844;2023-04-28T05:45:26;20.83;;;13.68;;
23304;SDS011;11821;51.456;8.844;2023-04-28T05:47:53;25.23;;;14.95;;
23304;SDS011;11821;51.456;8.844;2023-04-28T05:50:20;23.55;;;13.90;;
23304;SDS011;11821;51.456;8.844;2023-04-28T05:52:48;21.45;;;14.05;;
23304;SDS011;11821;51.456;8.844;2023-04-28T05:55:17;15.23;;;13.63;;
23304;SDS011;11821;51.456;8.844;2023-04-28T05:57:43;22.35;;;13.48;;
23304;SDS011;11821;51.456;8.844;2023-04-28T06:00:10;15.70;;;11.50;;
23304;SDS011;11821;51.456;8.844;2023-04-28T06:02:40;18.10;;;12.82;;
23304;SDS011;11821;51.456;8.844;2023-04-28T06:05:08;13.23;;;11.85;;
23304;SDS011;11821;51.456;8.844;2023-04-28T06:07:35;15.55;;;11.32;;
23304;SDS011;11821;51.456;8.844;2023-04-28T06:10:02;17.27;;;11.18;;
23304;SDS011;11821;51.456;8.844;2023-04-28T06:12:30;33.50;;;21.38;;
23304;SDS011;11821;51.456;8.844;2023-04-28T06:14:57;78.90;;;41.70;;
23304;SDS011;11821;51.456;8.844;2023-04-28T06:17:25;16.38;;;13.63;;
23304;SDS011;11821;51.456;8.844;2023-04-28T06:19:52;14.13;;;12.63;;
23304;SDS011;11821;51.456;8.844;2023-04-28T06:22:20;14.25;;;11.98;;
23304;SDS011;11821;51.456;8.844;2023-04-28T06:24:46;16.27;;;13.23;;
23304;SDS011;11821;51.456;8.844;2023-04-28T06:27:17;18.13;;;12.98;;
23304;SDS011;11821;51.456;8.844;2023-04-28T06:29:44;15.20;;;13.05;;
23304;SDS011;11821;51.456;8.844;2023-04-28T06:32:10;16.33;;;11.65;;
23304;SDS011;11821;51.456;8.844;2023-04-28T06:34:37;14.45;;;9.80;;
23304;SDS011;11821;51.456;8.844;2023-04-28T06:37:05;11.05;;;9.82;;
23304;SDS011;11821;51.456;8.844;2023-04-28T06:39:31;11.93;;;9.75;;
23304;SDS011;11821;51.456;8.844;2023-04-28T06:41:58;15.77;;;11.75;;
23304;SDS011;11821;51.456;8.844;2023-04-28T06:44:27;17.23;;;12.27;;
23304;SDS011;11821;51.456;8.844;2023-04-28T06:46:55;13.10;;;11.30;;
23304;SDS011;11821;51.456;8.844;2023-04-28T06:49:21;14.27;;;12.70;;
23304;SDS011;11821;51.456;8.844;2023-04-28T06:51:48;19.17;;;15.85;;
23304;SDS011;11821;51.456;8.844;2023-04-28T06:54:14;12.73;;;10.32;;
23304;SDS011;11821;51.456;8.844;2023-04-28T06:56:43;16.08;;;11.85;;
23304;SDS011;11821;51.456;8.844;2023-04-28T06:59:09;15.93;;;11.43;;
23304;SDS011;11821;51.456;8.844;2023-04-28T07:01:36;16.70;;;12.73;;
23304;SDS011;11821;51.456;8.844;2023-04-28T07:04:03;19.83;;;12.30;;
23304;SDS011;11821;51.456;8.844;2023-04-28T07:06:29;17.30;;;13.98;;
23304;SDS011;11821;51.456;8.844;2023-04-28T07:08:57;24.25;;;17.73;;
23304;SDS011;11821;51.456;8.844;2023-04-28T07:11:23;16.27;;;14.40;;
23304;SDS011;11821;51.456;8.844;2023-04-28T07:13:50;12.43;;;9.95;;
23304;SDS011;11821;51.456;8.844;2023-04-28T07:16:17;16.15;;;13.80;;
23304;SDS011;11821;51.456;8.844;2023-04-28T07:18:43;20.58;;;13.23;;
23304;SDS011;11821;51.456;8.844;2023-04-28T07:21:10;18.33;;;15.10;;
23304;SDS011;11821;51.456;8.844;2023-04-28T07:23:37;18.08;;;12.98;;
23304;SDS011;11821;51.456;8.844;2023-04-28T07:26:05;15.77;;;14.18;;
23304;SDS011;11821;51.456;8.844;2023-04-28T07:28:31;15.85;;;13.25;;
23304;SDS011;11821;51.456;8.844;2023-04-28T07:30:58;14.70;;;13.15;;
23304;SDS011;11821;51.456;8.844;2023-04-28T07:33:24;16.65;;;14.82;;
23304;SDS011;11821;51.456;8.844;2023-04-28T07:35:51;17.25;;;13.68;;
23304;SDS011;11821;51.456;8.844;2023-04-28T07:38:18;15.52;;;13.90;;
23304;SDS011;11821;51.456;8.844;2023-04-28T07:40:45;16.67;;;13.43;;
23304;SDS011;11821;51.456;8.844;2023-04-28T07:43:11;17.52;;;14.10;;
23304;SDS011;11821;51.456;8.844;2023-04-28T07:45:38;16.75;;;14.00;;
23304;SDS011;11821;51.456;8.844;2023-04-28T07:48:05;18.92;;;14.23;;
23304;SDS011;11821;51.456;8.844;2023-04-28T07:50:32;16.05;;;13.40;;
23304;SDS011;11821;51.456;8.844;2023-04-28T07:52:59;18.17;;;13.10;;
23304;SDS011;11821;51.456;8.844;2023-04-28T07:55:26;19.75;;;14.05;;
23304;SDS011;11821;51.456;8.844;2023-04-28T07:57:52;19.10;;;14.40;;
23304;SDS011;11821;51.456;8.844;2023-04-28T08:00:19;16.45;;;13.85;;
23304;SDS011;11821;51.456;8.844;2023-04-28T08:02:46;14.80;;;12.80;;
23304;SDS011;11821;51.456;8.844;2023-04-28T08:05:13;14.55;;;12.85;;
23304;SDS011;11821;51.456;8.844;2023-04-28T08:07:39;13.40;;;12.00;;
23304;SDS011;11821;51.456;8.844;2023-04-28T08:10:07;15.32;;;12.30;;
23304;SDS011;11821;51.456;8.844;2023-04-28T08:12:34;16.75;;;11.52;;
23304;SDS011;11821;51.456;8.844;2023-04-28T08:15:01;17.42;;;12.57;;
23304;SDS011;11821;51.456;8.844;2023-04-28T08:17:28;15.82;;;12.18;;
23304;SDS011;11821;51.456;8.844;2023-04-28T08:19:54;17.30;;;12.73;;
23304;SDS011;11821;51.456;8.844;2023-04-28T08:22:21;12.88;;;10.75;;
23304;SDS011;11821;51.456;8.844;2023-04-28T08:24:48;13.35;;;12.10;;
23304;SDS011;11821;51.456;8.844;2023-04-28T08:27:14;14.00;;;11.23;;
23304;SDS011;11821;51.456;8.844;2023-04-28T08:29:41;13.90;;;11.45;;
23304;SDS011;11821;51.456;8.844;2023-04-28T08:32:07;12.38;;;11.07;;
23304;SDS011;11821;51.456;8.844;2023-04-28T08:34:35;15.20;;;10.98;;
23304;SDS011;11821;51.456;8.844;2023-04-28T08:37:02;17.95;;;12.57;;
23304;SDS011;11821;51.456;8.844;2023-04-28T08:39:29;12.50;;;10.32;;
23304;SDS011;11821;51.456;8.844;2023-04-28T08:41:58;14.40;;;10.73;;
23304;SDS011;11821;51.456;8.844;2023-04-28T08:44:25;13.35;;;8.70;;
23304;SDS011;11821;51.456;8.844;2023-04-28T08:46:53;14.70;;;11.70;;
23304;SDS011;11821;51.456;8.844;2023-04-28T08:49:20;18.00;;;11.75;;
23304;SDS011;11821;51.456;8.844;2023-04-28T08:51:49;15.23;;;11.65;;
23304;SDS011;11821;51.456;8.844;2023-04-28T08:54:16;16.58;;;10.75;;
23304;SDS011;11821;51.456;8.844;2023-04-28T08:56:45;9.63;;;8.60;;
23304;SDS011;11821;51.456;8.844;2023-04-28T08:59:12;11.75;;;7.55;;
23304;SDS011;11821;51.456;8.844;2023-04-28T09:01:38;9.40;;;7.82;;
23304;SDS011;11821;51.456;8.844;2023-04-28T09:04:05;10.88;;;9.60;;
23304;SDS011;11821;51.456;8.844;2023-04-28T09:06:33;10.65;;;9.65;;
23304;SDS011;11821;51.456;8.844;2023-04-28T09:12:04;12.02;;;10.23;;
23304;SDS011;11821;51.456;8.844;2023-04-28T09:14:31;11.70;;;10.15;;
23304;SDS011;11821;51.456;8.844;2023-04-28T09:16:59;13.05;;;9.60;;
23304;SDS011;11821;51.456;8.844;2023-04-28T09:19:32;6.75;;;6.03;;
23304;SDS011;11821;51.456;8.844;2023-04-28T09:21:59;12.20;;;10.27;;
23304;SDS011;11821;51.456;8.844;2023-04-28T09:24:32;12.32;;;11.05;;
23304;SDS011;11821;51.456;8.844;2023-04-28T09:26:59;13.20;;;9.95;;
23304;SDS011;11821;51.456;8.844;2023-04-28T09:29:27;15.82;;;14.32;;
23304;SDS011;11821;51.456;8.844;2023-04-28T09:31:58;12.95;;;10.52;;
23304;SDS011;11821;51.456;8.844;2023-04-28T09:37:16;14.20;;;10.25;;
23304;SDS011;11821;51.456;8.844;2023-04-28T09:39:44;11.70;;;10.63;;
23304;SDS011;11821;51.456;8.844;2023-04-28T09:45:00;11.43;;;9.45;;
23304;SDS011;11821;51.456;8.844;2023-04-28T09:47:28;14.93;;;10.60;;
23304;SDS011;11821;51.456;8.844;2023-04-28T09:49:57;16.08;;;9.73;;
23304;SDS011;11821;51.456;8.844;2023-04-28T09:52:24;12.57;;;10.45;;
23304;SDS011;11821;51.456;8.844;2023-04-28T09:54:52;11.85;;;10.52;;
23304;SDS011;11821;51.456;8.844;2023-04-28T09:57:19;11.73;;;10.52;;
23304;SDS011;11821;51.456;8.844;2023-04-28T09:59:47;11.80;;;10.55;;
23304;SDS011;11821;51.456;8.844;2023-04-28T10:02:14;11.63;;;10.35;;
23304;SDS011;11821;51.456;8.844;2023-04-28T10:04:44;12.60;;;10.30;;
23304;SDS011;11821;51.456;8.844;2023-04-28T10:07:12;12.98;;;11.18;;
23304;SDS011;11821;51.456;8.844;2023-04-28T10:09:41;12.75;;;11.05;;
23304;SDS011;11821;51.456;8.844;2023-04-28T10:12:09;11.63;;;10.38;;
23304;SDS011;11821;51.456;8.844;2023-04-28T10:14:36;10.60;;;9.50;;
23304;SDS011;11821;51.456;8.844;2023-04-28T10:17:03;11.55;;;10.02;;
23304;SDS011;11821;51.456;8.844;2023-04-28T10:19:33;14.18;;;10.88;;
23304;SDS011;11821;51.456;8.844;2023-04-28T10:24:52;12.02;;;10.68;;
23304;SDS011;11821;51.456;8.844;2023-04-28T10:27:28;11.85;;;10.25;;
23304;SDS011;11821;51.456;8.844;2023-04-28T10:30:11;10.33;;;9.47;;
23304;SDS011;11821;51.456;8.844;2023-04-28T10:32:38;12.38;;;10.30;;
23304;SDS011;11821;51.456;8.844;2023-04-28T10:38:03;11.15;;;9.10;;
23304;SDS011;11821;51.456;8.844;2023-04-28T10:40:31;9.60;;;8.75;;
23304;SDS011;11821;51.456;8.844;2023-04-28T10:42:58;10.18;;;9.15;;
23304;SDS011;11821;51.456;8.844;2023-04-28T10:48:10;12.20;;;9.02;;
23304;SDS011;11821;51.456;8.844;2023-04-28T10:50:37;9.20;;;8.30;;
23304;SDS011;11821;51.456;8.844;2023-04-28T10:53:04;9.27;;;8.48;;
23304;SDS011;11821;51.456;8.844;2023-04-28T10:55:34;9.00;;;8.10;;
23304;SDS011;11821;51.456;8.844;2023-04-28T11:00:43;8.02;;;7.28;;
23304;SDS011;11821;51.456;8.844;2023-04-28T11:08:41;8.35;;;7.55;;
23304;SDS011;11821;51.456;8.844;2023-04-28T11:13:41;8.25;;;7.60;;
23304;SDS011;11821;51.456;8.844;2023-04-28T11:16:08;10.00;;;7.28;;
23304;SDS011;11821;51.456;8.844;2023-04-28T11:18:47;7.70;;;6.97;;
23304;SDS011;11821;51.456;8.844;2023-04-28T11:21:18;9.45;;;7.72;;
23304;SDS011;11821;51.456;8.844;2023-04-28T11:23:45;8.95;;;8.05;;
23304;SDS011;11821;51.456;8.844;2023-04-28T11:26:12;11.23;;;8.07;;
23304;SDS011;11821;51.456;8.844;2023-04-28T11:28:48;8.23;;;7.43;;
23304;SDS011;11821;51.456;8.844;2023-04-28T11:31:15;8.35;;;7.50;;
23304;SDS011;11821;51.456;8.844;2023-04-28T11:33:45;8.13;;;7.43;;
23304;SDS011;11821;51.456;8.844;2023-04-28T11:36:24;8.25;;;7.43;;
23304;SDS011;11821;51.456;8.844;2023-04-28T11:38:51;7.85;;;7.15;;
23304;SDS011;11821;51.456;8.844;2023-04-28T11:41:17;10.45;;;7.80;;
23304;SDS011;11821;51.456;8.844;2023-04-28T11:43:44;7.95;;;6.53;;
23304;SDS011;11821;51.456;8.844;2023-04-28T11:46:14;8.80;;;8.00;;
23304;SDS011;11821;51.456;8.844;2023-04-28T11:51:09;8.25;;;7.55;;
23304;SDS011;11821;51.456;8.844;2023-04-28T11:53:40;7.75;;;7.03;;
23304;SDS011;11821;51.456;8.844;2023-04-28T11:56:10;8.55;;;7.60;;
23304;SDS011;11821;51.456;8.844;2023-04-28T11:58:38;8.02;;;7.22;;
23304;SDS011;11821;51.456;8.844;2023-04-28T12:01:05;7.88;;;7.10;;
23304;SDS011;11821;51.456;8.844;2023-04-28T12:03:43;8.90;;;7.38;;
23304;SDS011;11821;51.456;8.844;2023-04-28T12:06:10;8.40;;;7.65;;
23304;SDS011;11821;51.456;8.844;2023-04-28T12:08:37;8.73;;;7.82;;
23304;SDS011;11821;51.456;8.844;2023-04-28T12:11:10;8.27;;;7.50;;
23304;SDS011;11821;51.456;8.844;2023-04-28T12:13:42;8.02;;;7.22;;
23304;SDS011;11821;51.456;8.844;2023-04-28T12:16:36;8.15;;;7.45;;
23304;SDS011;11821;51.456;8.844;2023-04-28T12:19:04;8.27;;;7.13;;
23304;SDS011;11821;51.456;8.844;2023-04-28T12:21:34;8.43;;;7.72;;
23304;SDS011;11821;51.456;8.844;2023-04-28T12:24:11;8.82;;;8.13;;
23304;SDS011;11821;51.456;8.844;2023-04-28T12:26:41;8.20;;;7.50;;
23304;SDS011;11821;51.456;8.844;2023-04-28T12:29:08;10.82;;;7.95;;
23304;SDS011;11821;51.456;8.844;2023-04-28T12:31:48;7.93;;;7.22;;
23304;SDS011;11821;51.456;8.844;2023-04-28T12:34:16;7.90;;;7.18;;
23304;SDS011;11821;51.456;8.844;2023-04-28T12:36:43;8.68;;;7.88;;
23304;SDS011;11821;51.456;8.844;2023-04-28T12:39:12;9.13;;;8.32;;
23304;SDS011;11821;51.456;8.844;2023-04-28T12:41:41;8.43;;;7.40;;
23304;SDS011;11821;51.456;8.844;2023-04-28T12:44:08;9.65;;;8.75;;
23304;SDS011;11821;51.456;8.844;2023-04-28T12:46:34;7.85;;;7.18;;
23304;SDS011;11821;51.456;8.844;2023-04-28T12:49:01;9.35;;;8.45;;
23304;SDS011;11821;51.456;8.844;2023-04-28T12:51:28;8.68;;;7.43;;
23304;SDS011;11821;51.456;8.844;2023-04-28T12:53:54;8.07;;;7.38;;
23304;SDS011;11821;51.456;8.844;2023-04-28T12:56:21;9.32;;;8.52;;
23304;SDS011;11821;51.456;8.844;2023-04-28T12:58:48;7.97;;;7.15;;
23304;SDS011;11821;51.456;8.844;2023-04-28T13:01:14;9.52;;;8.63;;
23304;SDS011;11821;51.456;8.844;2023-04-28T13:03:41;9.38;;;8.48;;
23304;SDS011;11821;51.456;8.844;2023-04-28T13:06:08;7.78;;;6.97;;
23304;SDS011;11821;51.456;8.844;2023-04-28T13:08:35;9.65;;;8.05;;
23304;SDS011;11821;51.456;8.844;2023-04-28T13:11:02;9.38;;;8.48;;
23304;SDS011;11821;51.456;8.844;2023-04-28T13:13:31;9.68;;;8.77;;
23304;SDS011;11821;51.456;8.844;2023-04-28T13:15:58;10.55;;;9.13;;
23304;SDS011;11821;51.456;8.844;2023-04-28T13:18:24;10.48;;;9.35;;
23304;SDS011;11821;51.456;8.844;2023-04-28T13:20:51;9.75;;;8.65;;
23304;SDS011;11821;51.456;8.844;2023-04-28T13:23:17;9.90;;;9.00;;
23304;SDS011;11821;51.456;8.844;2023-04-28T13:25:44;10.95;;;9.85;;
23304;SDS011;11821;51.456;8.844;2023-04-28T13:28:10;11.23;;;10.23;;
23304;SDS011;11821;51.456;8.844;2023-04-28T13:30:38;11.93;;;10.20;;
23304;SDS011;11821;51.456;8.844;2023-04-28T13:33:04;11.18;;;10.07;;
23304;SDS011;11821;51.456;8.844;2023-04-28T13:35:30;12.10;;;10.75;;
23304;SDS011;11821;51.456;8.844;2023-04-28T13:37:57;11.93;;;10.77;;
23304;SDS011;11821;51.456;8.844;2023-04-28T13:40:26;12.13;;;11.02;;
23304;SDS011;11821;51.456;8.844;2023-04-28T13:42:53;11.82;;;10.77;;
23304;SDS011;11821;51.456;8.844;2023-04-28T13:45:20;14.05;;;12.60;;
23304;SDS011;11821;51.456;8.844;2023-04-28T13:47:46;15.70;;;14.10;;
23304;SDS011;11821;51.456;8.844;2023-04-28T13:50:13;35.28;;;24.70;;
23304;SDS011;11821;51.456;8.844;2023-04-28T13:52:40;16.38;;;14.73;;
23304;SDS011;11821;51.456;8.844;2023-04-28T13:55:07;14.18;;;12.95;;
23304;SDS011;11821;51.456;8.844;2023-04-28T13:57:34;18.30;;;16.13;;
23304;SDS011;11821;51.456;8.844;2023-04-28T14:00:01;26.75;;;20.60;;
23304;SDS011;11821;51.456;8.844;2023-04-28T14:02:33;15.35;;;13.73;;
23304;SDS011;11821;51.456;8.844;2023-04-28T14:04:59;50.10;;;26.15;;
23304;SDS011;11821;51.456;8.844;2023-04-28T14:07:26;17.67;;;14.70;;
23304;SDS011;11821;51.456;8.844;2023-04-28T14:09:52;16.33;;;14.07;;
23304;SDS011;11821;51.456;8.844;2023-04-28T14:12:19;16.17;;;14.07;;
23304;SDS011;11821;51.456;8.844;2023-04-28T14:14:45;15.55;;;13.85;;
23304;SDS011;11821;51.456;8.844;2023-04-28T14:17:13;15.75;;;14.10;;
23304;SDS011;11821;51.456;8.844;2023-04-28T14:19:40;16.65;;;14.20;;
23304;SDS011;11821;51.456;8.844;2023-04-28T14:22:06;16.52;;;14.93;;
23304;SDS011;11821;51.456;8.844;2023-04-28T14:24:32;16.02;;;14.43;;
23304;SDS011;11821;51.456;8.844;2023-04-28T14:26:59;14.55;;;13.15;;
23304;SDS011;11821;51.456;8.844;2023-04-28T14:29:25;14.43;;;13.13;;
23304;SDS011;11821;51.456;8.844;2023-04-28T14:31:52;14.35;;;12.95;;
23304;SDS011;11821;51.456;8.844;2023-04-28T14:34:18;16.52;;;14.93;;
23304;SDS011;11821;51.456;8.844;2023-04-28T14:36:44;15.13;;;13.73;;
23304;SDS011;11821;51.456;8.844;2023-04-28T14:39:12;16.48;;;14.90;;
23304;SDS011;11821;51.456;8.844;2023-04-28T14:41:38;16.75;;;15.20;;
23304;SDS011;11821;51.456;8.844;2023-04-28T14:44:05;16.88;;;15.27;;
23304;SDS011;11821;51.456;8.844;2023-04-28T14:46:44;16.25;;;14.75;;
23304;SDS011;11821;51.456;8.844;2023-04-28T14:49:11;23.23;;;20.95;;
23304;SDS011;11821;51.456;8.844;2023-04-28T14:51:37;16.50;;;14.88;;
23304;SDS011;11821;51.456;8.844;2023-04-28T14:54:04;15.25;;;13.75;;
23304;SDS011;11821;51.456;8.844;2023-04-28T14:56:38;14.07;;;12.77;;
23304;SDS011;11821;51.456;8.844;2023-04-28T14:59:21;15.43;;;13.75;;
23304;SDS011;11821;51.456;8.844;2023-04-28T15:01:47;15.13;;;13.63;;
23304;SDS011;11821;51.456;8.844;2023-04-28T15:04:16;14.57;;;13.27;;
23304;SDS011;11821;51.456;8.844;2023-04-28T15:06:42;12.88;;;11.68;;
23304;SDS011;11821;51.456;8.844;2023-04-28T15:09:08;16.42;;;14.55;;